createdAt,value
2018-12-29T00:06:13.601Z,6.30
2018-12-29T00:08:56.058Z,6.30
2018-12-29T00:11:37.368Z,6.20
2018-12-29T00:14:18.880Z,6.10
2018-12-29T00:17:00.500Z,6.10
2018-12-29T00:19:41.879Z,6.10
2018-12-29T00:22:23.428Z,6.10
2018-12-29T00:25:04.908Z,6.10
2018-12-29T00:27:46.369Z,6.10
2018-12-29T00:30:28.564Z,6.20
2018-12-29T00:33:10.096Z,6.20
2018-12-29T00:35:50.854Z,6.30
2018-12-29T00:38:32.341Z,6.20
2018-12-29T00:41:14.017Z,6.20
2018-12-29T00:43:55.957Z,6.20
2018-12-29T00:46:37.587Z,6.20
2018-12-29T00:49:18.455Z,6.30
2018-12-29T00:52:00.176Z,6.30
2018-12-29T00:54:41.741Z,6.30
2018-12-29T01:00:07.683Z,6.30
2018-12-29T01:02:49.013Z,6.30
2018-12-29T01:05:30.371Z,6.20
2018-12-29T01:08:11.652Z,6.20
2018-12-29T01:10:52.763Z,6.20
2018-12-29T01:13:34.208Z,6.30
2018-12-29T01:19:04.969Z,6.20
2018-12-29T01:21:46.346Z,6.20
2018-12-29T01:24:27.199Z,6.20
2018-12-29T01:27:08.878Z,6.30
2018-12-29T01:29:50.224Z,6.30
2018-12-29T01:32:31.877Z,6.30
2018-12-29T01:37:59.380Z,6.40
2018-12-29T01:40:40.495Z,6.40
2018-12-29T01:43:21.653Z,6.40
2018-12-29T01:46:03.148Z,6.50
2018-12-29T01:48:45.989Z,6.50
2018-12-29T01:51:26.848Z,6.60
2018-12-29T01:54:08.324Z,6.50
2018-12-29T01:56:49.835Z,6.60
2018-12-29T02:05:33.483Z,6.60
2018-12-29T02:08:14.712Z,6.60
2018-12-29T02:10:55.478Z,6.60
2018-12-29T02:13:35.224Z,6.60
2018-12-29T02:16:17.056Z,6.50
2018-12-29T02:21:40.079Z,6.50
2018-12-29T02:27:03.876Z,6.50
2018-12-29T02:29:44.740Z,6.60
2018-12-29T02:32:26.684Z,6.60
2018-12-29T02:35:07.853Z,6.50
2018-12-29T02:37:48.937Z,6.40
2018-12-29T02:40:30.505Z,6.40
2018-12-29T02:43:11.499Z,6.50
2018-12-29T02:45:53.099Z,6.40
2018-12-29T02:48:35.080Z,6.50
2018-12-29T02:51:04.568Z,6.60
2018-12-29T02:53:53.153Z,6.60
2018-12-29T02:56:41.569Z,6.60
2018-12-29T02:59:22.558Z,6.60
2018-12-29T03:02:03.347Z,6.50
2018-12-29T03:07:30.292Z,6.60
2018-12-29T03:10:11.212Z,6.50
2018-12-29T03:12:52.028Z,6.60
2018-12-29T03:15:40.711Z,6.60
2018-12-29T03:18:15.915Z,6.60
2018-12-29T03:20:57.279Z,6.60
2018-12-29T03:23:38.683Z,6.70
2018-12-29T03:26:19.372Z,6.70
2018-12-29T03:29:00.579Z,6.60
2018-12-29T03:31:41.592Z,6.60
2018-12-29T03:34:22.931Z,6.60
2018-12-29T03:37:03.703Z,6.60
2018-12-29T03:39:45.246Z,6.60
2018-12-29T03:42:26.763Z,6.60
2018-12-29T03:45:06.511Z,6.50
2018-12-29T03:47:48.144Z,6.40
2018-12-29T03:50:29.302Z,6.40
2018-12-29T03:53:09.997Z,6.40
2018-12-29T03:55:39.320Z,6.40
2018-12-29T03:58:27.765Z,6.40
2018-12-29T04:04:22.268Z,6.30
2018-12-29T04:09:46.892Z,6.60
2018-12-29T04:12:27.971Z,6.70
2018-12-29T04:15:09.563Z,6.70
2018-12-29T04:17:50.652Z,6.60
2018-12-29T04:20:31.955Z,6.70
2018-12-29T04:23:13.532Z,6.70
2018-12-29T04:25:55.345Z,6.80
2018-12-29T04:28:36.495Z,6.70
2018-12-29T04:31:17.153Z,6.70
2018-12-29T04:33:58.301Z,6.70
2018-12-29T04:36:39.439Z,6.70
2018-12-29T04:39:20.078Z,6.70
2018-12-29T04:42:00.822Z,6.60
2018-12-29T04:47:24.330Z,6.60
2018-12-29T04:50:05.624Z,6.70
2018-12-29T04:52:35.064Z,6.70
2018-12-29T04:55:23.582Z,6.70
2018-12-29T04:58:05.154Z,6.70
2018-12-29T05:00:45.975Z,6.70
2018-12-29T05:03:26.897Z,6.70
2018-12-29T05:06:07.684Z,6.70
2018-12-29T05:08:49.564Z,6.70
2018-12-29T05:14:32.599Z,6.80
2018-12-29T05:17:13.734Z,6.80
2018-12-29T05:19:54.987Z,6.80
2018-12-29T05:22:36.894Z,6.80
2018-12-29T05:25:18.159Z,6.80
2018-12-29T05:27:59.264Z,6.80
2018-12-29T05:30:40.825Z,6.80
2018-12-29T05:33:22.766Z,6.90
2018-12-29T05:36:04.174Z,6.90
2018-12-29T05:38:45.717Z,6.90
2018-12-29T05:41:26.992Z,6.90
2018-12-29T05:44:09.271Z,6.90
2018-12-29T05:46:39.329Z,6.90
2018-12-29T05:52:15.815Z,6.90
2018-12-29T05:54:56.866Z,6.90
2018-12-29T05:57:38.700Z,6.90
2018-12-29T06:00:20.731Z,6.90
2018-12-29T06:03:02.432Z,6.90
2018-12-29T06:05:43.781Z,6.90
2018-12-29T06:08:25.665Z,6.90
2018-12-29T06:11:07.346Z,7.00
2018-12-29T06:13:48.677Z,6.90
2018-12-29T06:16:30.702Z,7.00
2018-12-29T06:19:11.656Z,7.00
2018-12-29T06:21:53.306Z,7.00
2018-12-29T06:24:34.871Z,7.00
2018-12-29T06:27:15.802Z,7.00
2018-12-29T06:29:57.761Z,6.90
2018-12-29T06:32:38.821Z,6.90
2018-12-29T06:35:20.022Z,6.90
2018-12-29T06:38:01.955Z,6.80
2018-12-29T06:40:43.703Z,6.90
2018-12-29T06:43:25.019Z,6.90
2018-12-29T06:46:06.188Z,6.90
2018-12-29T06:51:18.060Z,6.90
2018-12-29T06:54:06.605Z,6.90
2018-12-29T06:56:47.794Z,6.80
2018-12-29T06:59:28.562Z,6.70
2018-12-29T07:02:09.978Z,6.80
2018-12-29T07:07:29.758Z,6.70
2018-12-29T07:10:11.160Z,6.70
2018-12-29T07:12:52.618Z,6.80
2018-12-29T07:18:22.589Z,6.80
2018-12-29T07:21:03.802Z,6.70
2018-12-29T07:23:48.239Z,6.80
2018-12-29T07:26:29.748Z,6.70
2018-12-29T07:29:10.466Z,6.60
2018-12-29T07:31:52.181Z,6.70
2018-12-29T07:34:33.313Z,6.80
2018-12-29T07:37:14.527Z,6.80
2018-12-29T07:39:55.777Z,6.80
2018-12-29T07:42:26.008Z,6.90
2018-12-29T07:45:14.608Z,6.90
2018-12-29T07:48:03.175Z,6.90
2018-12-29T07:50:44.810Z,6.80
2018-12-29T07:53:26.433Z,6.80
2018-12-29T07:56:07.915Z,6.80
2018-12-29T07:58:49.582Z,6.80
2018-12-29T08:01:30.648Z,6.80
2018-12-29T08:04:12.062Z,6.80
2018-12-29T08:12:23.603Z,6.80
2018-12-29T08:15:04.784Z,6.80
2018-12-29T08:20:32.578Z,6.90
2018-12-29T08:23:14.969Z,6.90
2018-12-29T08:25:57.554Z,6.90
2018-12-29T08:28:38.914Z,6.90
2018-12-29T08:31:20.378Z,7.00
2018-12-29T08:34:01.802Z,7.00
2018-12-29T08:36:43.490Z,7.10
2018-12-29T08:39:24.961Z,7.10
2018-12-29T08:41:54.795Z,7.10
2018-12-29T08:44:43.320Z,7.10
2018-12-29T08:47:32.118Z,7.20
2018-12-29T08:50:13.518Z,7.10
2018-12-29T08:52:55.190Z,7.10
2018-12-29T08:55:36.693Z,7.20
2018-12-29T08:58:18.368Z,7.10
2018-12-29T09:00:59.495Z,7.10
2018-12-29T09:06:27.668Z,7.20
2018-12-29T09:09:08.762Z,7.20
2018-12-29T09:11:52.646Z,7.20
2018-12-29T09:14:35.749Z,7.20
2018-12-29T09:17:16.859Z,7.20
2018-12-29T09:19:58.378Z,7.30
2018-12-29T09:22:39.957Z,7.30
2018-12-29T09:28:07.394Z,7.30
2018-12-29T09:30:49.274Z,7.30
2018-12-29T09:33:30.773Z,7.30
2018-12-29T09:36:12.309Z,7.30
2018-12-29T09:38:53.582Z,7.40
2018-12-29T09:41:23.022Z,7.30
2018-12-29T09:44:12.143Z,7.40
2018-12-29T09:47:00.780Z,7.40
2018-12-29T09:49:41.707Z,7.40
2018-12-29T09:52:24.403Z,7.40
2018-12-29T09:55:05.691Z,7.40
2018-12-29T09:57:47.732Z,7.50
2018-12-29T10:00:28.941Z,7.50
2018-12-29T10:03:10.227Z,7.50
2018-12-29T10:05:52.095Z,7.50
2018-12-29T10:11:17.800Z,7.50
2018-12-29T10:13:59.198Z,7.50
2018-12-29T10:16:40.585Z,7.50
2018-12-29T10:19:22.050Z,7.50
2018-12-29T10:22:03.329Z,7.50
2018-12-29T10:27:57.752Z,7.50
2018-12-29T10:30:39.398Z,7.50
2018-12-29T10:33:09.438Z,7.50
2018-12-29T10:35:57.909Z,7.50
2018-12-29T10:41:13.953Z,7.50
2018-12-29T10:44:02.527Z,7.60
2018-12-29T10:46:44.144Z,7.70
2018-12-29T10:49:25.544Z,7.70
2018-12-29T10:52:07.206Z,7.70
2018-12-29T10:54:50.905Z,7.80
2018-12-29T10:57:32.753Z,7.80
2018-12-29T11:03:10.223Z,7.90
2018-12-29T11:05:51.395Z,8.00
2018-12-29T11:08:33.040Z,8.00
2018-12-29T11:11:15.205Z,8.10
2018-12-29T11:13:57.168Z,8.20
2018-12-29T11:19:17.801Z,8.20
2018-12-29T11:21:59.010Z,8.20
2018-12-29T11:24:40.573Z,8.20
2018-12-29T11:27:22.333Z,8.10
2018-12-29T11:30:03.657Z,8.20
2018-12-29T11:32:45.356Z,8.10
2018-12-29T11:35:29.012Z,8.10
2018-12-29T11:38:10.787Z,8.10
2018-12-29T11:40:52.193Z,8.10
2018-12-29T11:43:33.385Z,8.10
2018-12-29T11:46:14.696Z,8.20
2018-12-29T11:48:56.325Z,8.20
2018-12-29T11:51:37.901Z,8.20
2018-12-29T11:54:19.301Z,8.30
2018-12-29T11:57:00.444Z,8.30
2018-12-29T11:59:41.529Z,8.30
2018-12-29T12:02:24.526Z,8.30
2018-12-29T12:05:05.729Z,8.40
2018-12-29T12:07:47.017Z,8.40
2018-12-29T12:10:28.527Z,8.40
2018-12-29T12:13:12.654Z,8.40
2018-12-29T12:15:54.467Z,8.50
2018-12-29T12:18:36.023Z,8.50
2018-12-29T12:21:17.789Z,8.50
2018-12-29T12:23:59.232Z,8.60
2018-12-29T12:26:40.282Z,8.60
2018-12-29T12:29:20.975Z,8.60
2018-12-29T12:32:02.259Z,8.60
2018-12-29T12:40:20.314Z,8.70
2018-12-29T12:43:03.270Z,8.80
2018-12-29T12:45:44.786Z,8.80
2018-12-29T12:48:25.692Z,8.80
2018-12-29T12:51:07.109Z,8.90
2018-12-29T12:53:48.611Z,8.90
2018-12-29T12:56:29.730Z,8.90
2018-12-29T13:01:57.311Z,8.90
2018-12-29T13:04:38.884Z,8.90
2018-12-29T13:07:20.797Z,8.90
2018-12-29T13:10:02.575Z,8.90
2018-12-29T13:12:43.877Z,8.90
2018-12-29T13:15:25.763Z,8.90
2018-12-29T13:18:13.019Z,9.00
2018-12-29T13:23:28.768Z,9.10
2018-12-29T13:26:10.681Z,9.10
2018-12-29T13:28:53.670Z,9.10
2018-12-29T13:31:34.451Z,9.20
2018-12-29T13:34:15.932Z,9.20
2018-12-29T13:36:57.567Z,9.20
2018-12-29T13:39:39.470Z,9.30
2018-12-29T13:42:21.300Z,9.30
2018-12-29T13:45:02.804Z,9.30
2018-12-29T13:47:42.863Z,9.30
2018-12-29T13:50:25.816Z,9.30
2018-12-29T13:53:07.106Z,9.30
2018-12-29T13:55:36.884Z,9.30
2018-12-29T13:58:25.709Z,9.30
2018-12-29T14:01:15.279Z,9.30
2018-12-29T14:04:03.792Z,9.30
2018-12-29T14:09:34.836Z,9.40
2018-12-29T14:12:16.280Z,9.50
2018-12-29T14:14:57.655Z,9.50
2018-12-29T14:17:27.140Z,9.50
2018-12-29T14:20:16.039Z,9.60
2018-12-29T14:23:16.863Z,9.60
2018-12-29T14:25:48.176Z,9.60
2018-12-29T14:28:29.811Z,9.70
2018-12-29T14:31:16.680Z,9.80
2018-12-29T14:34:00.897Z,9.80
2018-12-29T14:36:44.799Z,9.80
2018-12-29T14:42:10.556Z,9.90
2018-12-29T14:44:51.320Z,9.90
2018-12-29T14:47:32.572Z,9.90
2018-12-29T14:50:13.664Z,9.90
2018-12-29T14:52:55.041Z,9.90
2018-12-29T14:55:24.842Z,10.00
2018-12-29T14:58:13.768Z,9.90
2018-12-29T15:01:03.128Z,10.00
2018-12-29T15:03:44.524Z,10.00
2018-12-29T15:06:25.628Z,9.90
2018-12-29T15:09:07.303Z,10.00
2018-12-29T15:11:49.074Z,10.00
2018-12-29T15:14:30.208Z,10.00
2018-12-29T15:17:10.326Z,10.00
2018-12-29T15:19:51.323Z,10.00
2018-12-29T15:25:11.379Z,9.90
2018-12-29T15:30:35.898Z,9.90
2018-12-29T15:33:18.571Z,9.90
2018-12-29T15:36:00.342Z,9.90
2018-12-29T15:38:41.646Z,9.90
2018-12-29T15:41:25.984Z,10.00
2018-12-29T15:43:56.518Z,10.00
2018-12-29T15:46:26.201Z,10.10
2018-12-29T15:49:16.446Z,10.20
2018-12-29T15:52:05.680Z,10.20
2018-12-29T15:54:47.147Z,10.20
2018-12-29T15:57:29.979Z,10.20
2018-12-29T16:02:57.836Z,10.30
2018-12-29T16:05:39.309Z,10.40
2018-12-29T16:08:20.971Z,10.40
2018-12-29T16:11:02.488Z,10.40
2018-12-29T16:13:44.109Z,10.50
2018-12-29T16:16:25.719Z,10.50
2018-12-29T16:21:52.190Z,10.60
2018-12-29T16:24:34.579Z,10.60
2018-12-29T16:27:16.070Z,10.70
2018-12-29T16:29:57.152Z,10.70
2018-12-29T16:32:38.791Z,10.70
2018-12-29T16:35:20.348Z,10.60
2018-12-29T16:37:49.667Z,10.60
2018-12-29T16:43:33.815Z,10.60
2018-12-29T16:49:06.775Z,10.60
2018-12-29T16:51:43.776Z,10.60
2018-12-29T16:54:25.507Z,10.60
2018-12-29T16:57:06.748Z,10.60
2018-12-29T17:02:35.035Z,10.60
2018-12-29T17:05:16.803Z,10.60
2018-12-29T17:07:58.299Z,10.60
2018-12-29T17:10:40.066Z,10.60
2018-12-29T17:13:22.150Z,10.60
2018-12-29T17:18:50.077Z,10.60
2018-12-29T17:21:31.685Z,10.60
2018-12-29T17:24:13.594Z,10.60
2018-12-29T17:26:55.024Z,10.60
2018-12-29T17:29:36.897Z,10.60
2018-12-29T17:35:05.315Z,10.60
2018-12-29T17:37:46.851Z,10.60
2018-12-29T17:40:29.223Z,10.60
2018-12-29T17:43:10.940Z,10.70
2018-12-29T17:45:51.818Z,10.60
2018-12-29T17:48:32.568Z,10.70
2018-12-29T17:51:13.691Z,10.60
2018-12-29T17:53:55.701Z,10.60
2018-12-29T17:56:40.644Z,10.60
2018-12-29T17:59:21.791Z,10.60
2018-12-29T18:02:03.103Z,10.60
2018-12-29T18:04:45.713Z,10.50
2018-12-29T18:07:27.031Z,10.60
2018-12-29T18:10:09.385Z,10.50
2018-12-29T18:12:50.677Z,10.50
2018-12-29T18:15:32.301Z,10.50
2018-12-29T18:18:15.237Z,10.50
2018-12-29T18:20:57.170Z,10.50
2018-12-29T18:23:39.257Z,10.50
2018-12-29T18:26:20.690Z,10.50
2018-12-29T18:29:01.802Z,10.40
2018-12-29T18:31:43.130Z,10.40
2018-12-29T18:34:24.809Z,10.30
2018-12-29T18:37:05.779Z,10.30
2018-12-29T18:42:19.901Z,10.20
2018-12-29T18:45:08.414Z,10.10
2018-12-29T18:47:50.387Z,10.10
2018-12-29T18:50:31.863Z,10.10
2018-12-29T18:53:13.333Z,10.00
2018-12-29T18:55:54.814Z,10.00
2018-12-29T18:58:36.639Z,10.00
2018-12-29T19:01:17.889Z,9.90
2018-12-29T19:03:59.092Z,9.90
2018-12-29T19:06:40.687Z,9.80
2018-12-29T19:09:24.858Z,9.70
2018-12-29T19:12:11.113Z,9.70
2018-12-29T19:14:49.792Z,9.70
2018-12-29T19:17:32.386Z,9.60
2018-12-29T19:23:00.561Z,9.60
2018-12-29T19:28:27.879Z,9.50
2018-12-29T19:31:09.911Z,9.50
2018-12-29T19:33:51.438Z,9.50
2018-12-29T19:36:32.508Z,9.40
2018-12-29T19:41:57.144Z,9.40
2018-12-29T19:44:38.739Z,9.40
2018-12-29T19:47:20.386Z,9.30
2018-12-29T19:50:02.454Z,9.30
2018-12-29T19:52:43.839Z,9.30
2018-12-29T19:55:25.719Z,9.30
2018-12-29T19:58:06.020Z,9.20
2018-12-29T20:00:48.771Z,9.30
2018-12-29T20:03:18.940Z,9.10
2018-12-29T20:06:11.345Z,9.10
2018-12-29T20:08:54.157Z,9.10
2018-12-29T20:11:35.403Z,9.10
2018-12-29T20:14:16.912Z,9.10
2018-12-29T20:16:58.971Z,9.10
2018-12-29T20:19:40.762Z,9.00
2018-12-29T20:22:22.369Z,8.90
2018-12-29T20:25:04.099Z,8.80
2018-12-29T20:27:45.728Z,8.80
2018-12-29T20:30:27.113Z,8.80
2018-12-29T20:32:59.116Z,8.70
2018-12-29T20:35:49.212Z,8.70
2018-12-29T20:41:17.209Z,8.60
2018-12-29T20:49:29.591Z,8.50
2018-12-29T20:55:05.922Z,8.40
2018-12-29T21:00:38.880Z,8.40
2018-12-29T21:03:18.556Z,8.40
2018-12-29T21:05:59.962Z,8.40
2018-12-29T21:08:41.416Z,8.40
2018-12-29T21:11:23.925Z,8.30
2018-12-29T21:14:05.499Z,8.30
2018-12-29T21:16:49.851Z,8.30
2018-12-29T21:19:31.812Z,8.20
2018-12-29T21:22:13.587Z,8.20
2018-12-29T21:24:55.588Z,8.10
2018-12-29T21:27:40.314Z,8.10
2018-12-29T21:33:00.651Z,8.00
2018-12-29T21:35:42.346Z,8.00
2018-12-29T21:38:26.559Z,7.90
2018-12-29T21:41:07.717Z,7.90
2018-12-29T21:43:50.283Z,7.80
2018-12-29T21:46:32.155Z,7.80
2018-12-29T21:49:14.886Z,7.90
2018-12-29T21:51:56.640Z,7.90
2018-12-29T21:54:40.305Z,7.90
2018-12-29T21:57:21.220Z,7.80
2018-12-29T22:00:02.730Z,7.80
2018-12-29T22:02:43.426Z,7.80
2018-12-29T22:05:25.929Z,7.70
2018-12-29T22:10:53.275Z,7.50
2018-12-29T22:13:34.473Z,7.60
2018-12-29T22:16:16.116Z,7.50
2018-12-29T22:21:36.026Z,7.40
2018-12-29T22:24:17.339Z,7.40
2018-12-29T22:26:58.348Z,7.40
2018-12-29T22:29:39.591Z,7.40
2018-12-29T22:32:19.339Z,7.40
2018-12-29T22:35:00.860Z,7.30
2018-12-29T22:37:43.292Z,7.30
2018-12-29T22:40:24.879Z,7.30
2018-12-29T22:43:06.135Z,7.20
2018-12-29T22:48:35.495Z,7.10
2018-12-29T22:51:17.266Z,7.10
2018-12-29T22:56:41.981Z,7.10
2018-12-29T22:59:23.138Z,7.00
2018-12-29T23:02:04.813Z,7.00
2018-12-29T23:04:46.487Z,7.00
2018-12-29T23:07:27.728Z,7.00
2018-12-29T23:10:09.246Z,6.90
2018-12-29T23:12:50.741Z,7.00
2018-12-29T23:15:32.120Z,6.90
2018-12-29T23:18:12.912Z,6.90
2018-12-29T23:20:54.886Z,6.90
2018-12-29T23:23:36.203Z,6.90
2018-12-29T23:26:17.199Z,6.90
2018-12-29T23:28:58.856Z,7.00
2018-12-29T23:31:38.562Z,7.00
2018-12-29T23:34:19.775Z,7.00
2018-12-29T23:37:01.425Z,7.00
2018-12-29T23:39:42.039Z,6.90
2018-12-29T23:42:22.815Z,6.90
2018-12-29T23:45:03.908Z,6.80
2018-12-29T23:47:45.471Z,6.80
2018-12-29T23:50:28.677Z,6.80
2018-12-29T23:53:10.362Z,6.80
2018-12-29T23:55:40.017Z,6.80
